Arickaree, Colorado
Current Conditions -  °F | °C
As of 4:55 PM on Saturday 25 Oct 2014 (Local Time) from KLIC Reporting Station
Clear Clear  
Wind Chill: 77°   Ceiling: Unl
Heat Index: 77°   Visibility: 10mi
Dew Point: 23°   Wind: 8mph
Humidity: 13%   Direction: 120°ESE
Pressure: 30.1"   Gusts: NA
Location:  39.6673°N, 103.47°W
Report Text: KLIC 252255Z AUTO 12007KT 10SM CLR 25/M05 A3010 RMK AO2 SLP130 T02501050 $
Loading
Personal Weather Stations






























Interactive Weather Map
Tropical Storm Tracking
New forecast layout! Learn more

10-Day Weather Forecast

Advertisements
Track Severe Weather on mobile